EAI41D EIDL-EIDW
Flight info
| Callsign | EAI41D |
|---|---|
| Flight time | 0h 34m |
| Altitude | 17000 |
| Route | CFN DCT TADEX DCT ELBOB DCT BAMLI BAMLI3R |
| Aircraft | AT76/M-SDFGIRY/S |
Departure
| Time | 2026-05-06 22:07 |
|---|---|
| Airport | Donegal Airport (EIDL) |
Arrival
| Time | 2026-05-06 22:42 |
|---|---|
| Airport | Dublin Airport (EIDW) |
| Time | Latitude | Longitude | Altitude | Speed | Heading |
|---|---|---|---|---|---|
| 2026-05-06 21:33 | 55.03844 | -8.34199 | 38 ft | 0 kts | 200° |
| 2026-05-06 22:00 | 55.03843 | -8.34203 | 41 ft | 1 kts | 223° |
| 2026-05-06 22:00 | 55.03845 | -8.34218 | 41 ft | 3 kts | 289° |
| 2026-05-06 22:01 | 55.03868 | -8.34289 | 39 ft | 9 kts | 297° |
| 2026-05-06 22:01 | 55.03885 | -8.34390 | 43 ft | 7 kts | 295° |
| 2026-05-06 22:01 | 55.03921 | -8.34415 | 46 ft | 6 kts | 19° |
| 2026-05-06 22:01 | 55.03970 | -8.34383 | 50 ft | 10 kts | 20° |
| 2026-05-06 22:02 | 55.04047 | -8.34333 | 52 ft | 14 kts | 20° |
| 2026-05-06 22:02 | 55.04153 | -8.34266 | 54 ft | 19 kts | 20° |
| 2026-05-06 22:02 | 55.04293 | -8.34173 | 65 ft | 25 kts | 20° |
| 2026-05-06 22:02 | 55.04464 | -8.34068 | 74 ft | 27 kts | 20° |
| 2026-05-06 22:03 | 55.04640 | -8.33951 | 90 ft | 24 kts | 20° |
| 2026-05-06 22:03 | 55.04779 | -8.33856 | 94 ft | 18 kts | 21° |
| 2026-05-06 22:03 | 55.04892 | -8.33783 | 99 ft | 17 kts | 20° |
| 2026-05-06 22:03 | 55.04993 | -8.33733 | 103 ft | 12 kts | 1° |
| 2026-05-06 22:04 | 55.05034 | -8.33717 | 104 ft | 2 kts | 97° |
| 2026-05-06 22:04 | 55.05021 | -8.33711 | 104 ft | 3 kts | 178° |
| 2026-05-06 22:04 | 55.05011 | -8.33716 | 103 ft | 0 kts | 202° |
| 2026-05-06 22:06 | 55.05007 | -8.33720 | 102 ft | 7 kts | 202° |
| 2026-05-06 22:07 | 55.04716 | -8.33907 | 92 ft | 78 kts | 201° |
| 2026-05-06 22:07 | 55.04029 | -8.34345 | 160 ft | 120 kts | 199° |
| 2026-05-06 22:07 | 55.03272 | -8.34801 | 755 ft | 114 kts | 197° |
| 2026-05-06 22:07 | 55.02504 | -8.35163 | 1315 ft | 117 kts | 186° |
| 2026-05-06 22:08 | 55.01717 | -8.34799 | 1792 ft | 128 kts | 144° |
| 2026-05-06 22:08 | 55.01142 | -8.33601 | 2320 ft | 129 kts | 130° |
| 2026-05-06 22:08 | 55.00592 | -8.32353 | 2871 ft | 131 kts | 131° |
| 2026-05-06 22:08 | 55.00021 | -8.31116 | 3432 ft | 132 kts | 133° |
| 2026-05-06 22:09 | 54.99411 | -8.29839 | 3663 ft | 149 kts | 134° |
| 2026-05-06 22:09 | 54.98672 | -8.28336 | 3713 ft | 175 kts | 134° |
| 2026-05-06 22:09 | 54.97870 | -8.26680 | 4051 ft | 180 kts | 133° |
| 2026-05-06 22:09 | 54.97071 | -8.24988 | 4475 ft | 181 kts | 133° |
| 2026-05-06 22:10 | 54.96275 | -8.23282 | 4901 ft | 182 kts | 133° |
| 2026-05-06 22:10 | 54.95480 | -8.21568 | 5332 ft | 182 kts | 133° |
| 2026-05-06 22:10 | 54.94689 | -8.19832 | 5741 ft | 184 kts | 132° |
| 2026-05-06 22:10 | 54.93897 | -8.18080 | 6157 ft | 185 kts | 133° |
| 2026-05-06 22:11 | 54.93091 | -8.16332 | 6535 ft | 186 kts | 133° |
| 2026-05-06 22:11 | 54.92275 | -8.14581 | 6892 ft | 187 kts | 133° |
| 2026-05-06 22:11 | 54.91458 | -8.12841 | 7243 ft | 189 kts | 133° |
| 2026-05-06 22:11 | 54.90619 | -8.11054 | 7600 ft | 191 kts | 133° |
| 2026-05-06 22:12 | 54.89776 | -8.09254 | 7959 ft | 193 kts | 133° |
| 2026-05-06 22:12 | 54.88926 | -8.07436 | 8304 ft | 195 kts | 132° |
| 2026-05-06 22:12 | 54.88064 | -8.05600 | 8659 ft | 197 kts | 132° |
| 2026-05-06 22:12 | 54.87194 | -8.03753 | 9007 ft | 199 kts | 132° |
| 2026-05-06 22:13 | 54.86317 | -8.01888 | 9342 ft | 200 kts | 132° |
| 2026-05-06 22:13 | 54.85433 | -8.00009 | 9678 ft | 202 kts | 132° |
| 2026-05-06 22:13 | 54.84540 | -7.98108 | 9981 ft | 203 kts | 131° |
| 2026-05-06 22:13 | 54.83640 | -7.96200 | 10280 ft | 205 kts | 131° |
| 2026-05-06 22:14 | 54.82735 | -7.94279 | 10577 ft | 206 kts | 132° |
| 2026-05-06 22:14 | 54.81827 | -7.92359 | 10866 ft | 207 kts | 132° |
| 2026-05-06 22:14 | 54.80926 | -7.90451 | 11140 ft | 208 kts | 132° |
| 2026-05-06 22:14 | 54.80005 | -7.88506 | 11425 ft | 209 kts | 132° |
| 2026-05-06 22:15 | 54.79079 | -7.86549 | 11723 ft | 210 kts | 132° |
| 2026-05-06 22:15 | 54.78148 | -7.84582 | 12010 ft | 212 kts | 132° |
| 2026-05-06 22:15 | 54.77210 | -7.82608 | 12295 ft | 213 kts | 132° |
| 2026-05-06 22:15 | 54.76266 | -7.80622 | 12577 ft | 214 kts | 132° |
| 2026-05-06 22:16 | 54.75318 | -7.78623 | 12858 ft | 215 kts | 132° |
| 2026-05-06 22:16 | 54.74366 | -7.76613 | 13134 ft | 217 kts | 132° |
| 2026-05-06 22:16 | 54.73399 | -7.74600 | 13414 ft | 218 kts | 134° |
| 2026-05-06 22:16 | 54.72393 | -7.72642 | 13698 ft | 218 kts | 135° |
| 2026-05-06 22:17 | 54.71360 | -7.70707 | 13943 ft | 220 kts | 135° |
| 2026-05-06 22:17 | 54.70323 | -7.68760 | 14180 ft | 221 kts | 135° |
| 2026-05-06 22:17 | 54.69632 | -7.67458 | 14335 ft | 221 kts | 135° |
| 2026-05-06 22:17 | 54.68239 | -7.64831 | 14638 ft | 222 kts | 135° |
| 2026-05-06 22:18 | 54.67546 | -7.63528 | 14780 ft | 223 kts | 135° |
| 2026-05-06 22:18 | 54.66492 | -7.61545 | 15014 ft | 224 kts | 135° |
| 2026-05-06 22:18 | 54.65438 | -7.59559 | 15248 ft | 225 kts | 135° |
| 2026-05-06 22:18 | 54.64378 | -7.57566 | 15478 ft | 226 kts | 135° |
| 2026-05-06 22:19 | 54.63308 | -7.55565 | 15687 ft | 227 kts | 135° |
| 2026-05-06 22:19 | 54.62239 | -7.53563 | 15907 ft | 227 kts | 135° |
| 2026-05-06 22:19 | 54.61165 | -7.51553 | 16124 ft | 228 kts | 135° |
| 2026-05-06 22:19 | 54.60087 | -7.49535 | 16319 ft | 229 kts | 135° |
| 2026-05-06 22:20 | 54.59000 | -7.47511 | 16522 ft | 230 kts | 136° |
| 2026-05-06 22:20 | 54.57903 | -7.45511 | 16721 ft | 230 kts | 136° |
| 2026-05-06 22:20 | 54.56789 | -7.43495 | 16864 ft | 234 kts | 136° |
| 2026-05-06 22:20 | 54.55677 | -7.41443 | 16915 ft | 240 kts | 136° |
| 2026-05-06 22:21 | 54.54526 | -7.39303 | 16945 ft | 247 kts | 135° |
| 2026-05-06 22:21 | 54.53340 | -7.37093 | 16958 ft | 254 kts | 135° |
| 2026-05-06 22:21 | 54.52127 | -7.34835 | 16964 ft | 260 kts | 135° |
| 2026-05-06 22:21 | 54.50882 | -7.32520 | 16969 ft | 265 kts | 135° |
| 2026-05-06 22:22 | 54.49619 | -7.30173 | 16969 ft | 269 kts | 135° |
| 2026-05-06 22:22 | 54.48336 | -7.27796 | 16971 ft | 272 kts | 135° |
| 2026-05-06 22:22 | 54.47041 | -7.25393 | 16970 ft | 275 kts | 135° |
| 2026-05-06 22:22 | 54.45738 | -7.22982 | 16963 ft | 277 kts | 135° |
| 2026-05-06 22:23 | 54.44418 | -7.20538 | 16969 ft | 278 kts | 135° |
| 2026-05-06 22:23 | 54.43012 | -7.18387 | 16966 ft | 272 kts | 155° |
| 2026-05-06 22:23 | 54.41226 | -7.17258 | 16971 ft | 270 kts | 167° |
| 2026-05-06 22:23 | 54.39438 | -7.16406 | 16972 ft | 271 kts | 168° |
| 2026-05-06 22:24 | 54.37613 | -7.15511 | 16971 ft | 273 kts | 166° |
| 2026-05-06 22:24 | 54.35801 | -7.14497 | 16971 ft | 274 kts | 164° |
| 2026-05-06 22:24 | 54.34000 | -7.13402 | 16973 ft | 275 kts | 163° |
| 2026-05-06 22:24 | 54.32191 | -7.12309 | 16971 ft | 275 kts | 164° |
| 2026-05-06 22:25 | 54.30381 | -7.11235 | 16973 ft | 275 kts | 164° |
| 2026-05-06 22:25 | 54.28564 | -7.10158 | 16973 ft | 276 kts | 164° |
| 2026-05-06 22:25 | 54.26752 | -7.09084 | 16972 ft | 276 kts | 164° |
| 2026-05-06 22:25 | 54.24934 | -7.08011 | 16974 ft | 276 kts | 164° |
| 2026-05-06 22:26 | 54.23115 | -7.06940 | 16973 ft | 277 kts | 164° |
| 2026-05-06 22:26 | 54.21296 | -7.05861 | 16977 ft | 277 kts | 164° |
| 2026-05-06 22:26 | 54.19475 | -7.04786 | 16979 ft | 277 kts | 164° |
| 2026-05-06 22:26 | 54.17652 | -7.03707 | 16973 ft | 277 kts | 163° |
| 2026-05-06 22:27 | 54.15823 | -7.02626 | 16977 ft | 277 kts | 164° |
| 2026-05-06 22:27 | 54.13997 | -7.01556 | 16975 ft | 277 kts | 164° |
| 2026-05-06 22:27 | 54.12171 | -7.00483 | 16973 ft | 277 kts | 164° |
| 2026-05-06 22:27 | 54.10371 | -6.99425 | 16976 ft | 277 kts | 164° |
| 2026-05-06 22:28 | 54.08548 | -6.98358 | 16977 ft | 277 kts | 164° |
| 2026-05-06 22:28 | 54.06724 | -6.97287 | 16979 ft | 277 kts | 164° |
| 2026-05-06 22:28 | 54.04895 | -6.96215 | 16978 ft | 277 kts | 164° |
| 2026-05-06 22:28 | 54.03067 | -6.95144 | 16978 ft | 277 kts | 164° |
| 2026-05-06 22:29 | 54.01244 | -6.94080 | 16971 ft | 278 kts | 164° |
| 2026-05-06 22:29 | 53.99397 | -6.93001 | 16673 ft | 287 kts | 163° |
| 2026-05-06 22:29 | 53.97487 | -6.91887 | 16245 ft | 291 kts | 163° |
| 2026-05-06 22:29 | 53.95557 | -6.90760 | 15820 ft | 294 kts | 163° |
| 2026-05-06 22:30 | 53.93620 | -6.89631 | 15397 ft | 295 kts | 163° |
| 2026-05-06 22:30 | 53.91675 | -6.88498 | 14974 ft | 297 kts | 163° |
| 2026-05-06 22:30 | 53.89744 | -6.87373 | 14558 ft | 297 kts | 163° |
| 2026-05-06 22:30 | 53.87782 | -6.86236 | 14148 ft | 297 kts | 163° |
| 2026-05-06 22:31 | 53.85823 | -6.85097 | 13737 ft | 297 kts | 163° |
| 2026-05-06 22:31 | 53.83865 | -6.83961 | 13278 ft | 297 kts | 163° |
| 2026-05-06 22:31 | 53.81902 | -6.82824 | 12829 ft | 297 kts | 163° |
| 2026-05-06 22:31 | 53.79955 | -6.81697 | 12383 ft | 295 kts | 163° |
| 2026-05-06 22:32 | 53.78021 | -6.80580 | 11954 ft | 292 kts | 163° |
| 2026-05-06 22:32 | 53.76132 | -6.79491 | 11539 ft | 289 kts | 163° |
| 2026-05-06 22:32 | 53.74239 | -6.78397 | 11126 ft | 286 kts | 163° |
| 2026-05-06 22:32 | 53.72364 | -6.77319 | 10736 ft | 284 kts | 163° |
| 2026-05-06 22:33 | 53.70494 | -6.76241 | 10338 ft | 282 kts | 163° |
| 2026-05-06 22:33 | 53.68640 | -6.75176 | 9956 ft | 281 kts | 163° |
| 2026-05-06 22:33 | 53.66799 | -6.74113 | 9535 ft | 279 kts | 162° |
| 2026-05-06 22:33 | 53.64965 | -6.73063 | 9119 ft | 278 kts | 162° |
| 2026-05-06 22:34 | 53.63142 | -6.72014 | 8712 ft | 276 kts | 162° |
| 2026-05-06 22:34 | 53.61326 | -6.70976 | 8314 ft | 275 kts | 162° |
| 2026-05-06 22:34 | 53.59523 | -6.69939 | 7924 ft | 273 kts | 162° |
| 2026-05-06 22:34 | 53.57724 | -6.68910 | 7538 ft | 272 kts | 162° |
| 2026-05-06 22:35 | 53.55937 | -6.67892 | 7162 ft | 271 kts | 162° |
| 2026-05-06 22:35 | 53.54140 | -6.66947 | 6792 ft | 265 kts | 170° |
| 2026-05-06 22:35 | 53.52313 | -6.66886 | 6435 ft | 263 kts | 186° |
| 2026-05-06 22:35 | 53.50503 | -6.67237 | 6049 ft | 259 kts | 189° |
| 2026-05-06 22:36 | 53.48744 | -6.67491 | 5676 ft | 251 kts | 176° |
| 2026-05-06 22:36 | 53.47141 | -6.66445 | 5310 ft | 246 kts | 148° |
| 2026-05-06 22:36 | 53.45746 | -6.64815 | 4935 ft | 242 kts | 140° |
| 2026-05-06 22:36 | 53.44628 | -6.62765 | 4350 ft | 239 kts | 126° |
| 2026-05-06 22:37 | 53.44056 | -6.60364 | 3976 ft | 210 kts | 102° |
| 2026-05-06 22:37 | 53.43796 | -6.57959 | 3657 ft | 209 kts | 94° |
| 2026-05-06 22:37 | 53.43716 | -6.55530 | 3355 ft | 208 kts | 91° |
| 2026-05-06 22:37 | 53.43603 | -6.53121 | 3075 ft | 207 kts | 95° |
| 2026-05-06 22:38 | 53.43443 | -6.50734 | 2801 ft | 205 kts | 94° |
| 2026-05-06 22:38 | 53.43319 | -6.48441 | 2524 ft | 190 kts | 93° |
| 2026-05-06 22:38 | 53.43209 | -6.46322 | 2280 ft | 175 kts | 94° |
| 2026-05-06 22:38 | 53.43097 | -6.44371 | 2043 ft | 162 kts | 94° |
| 2026-05-06 22:39 | 53.42992 | -6.42531 | 1830 ft | 155 kts | 94° |
| 2026-05-06 22:39 | 53.42895 | -6.40765 | 1632 ft | 149 kts | 94° |
| 2026-05-06 22:39 | 53.42804 | -6.39132 | 1458 ft | 132 kts | 94° |
| 2026-05-06 22:39 | 53.42728 | -6.37662 | 1255 ft | 124 kts | 94° |
| 2026-05-06 22:40 | 53.42651 | -6.36272 | 1090 ft | 119 kts | 95° |
| 2026-05-06 22:40 | 53.42566 | -6.34889 | 936 ft | 120 kts | 96° |
| 2026-05-06 22:40 | 53.42496 | -6.33506 | 803 ft | 118 kts | 95° |
| 2026-05-06 22:40 | 53.42421 | -6.32115 | 635 ft | 120 kts | 98° |
| 2026-05-06 22:41 | 53.42263 | -6.29384 | 311 ft | 116 kts | 98° |
| 2026-05-06 22:41 | 53.42190 | -6.28051 | 217 ft | 108 kts | 97° |
| 2026-05-06 22:41 | 53.42133 | -6.27010 | 215 ft | 60 kts | 95° |
| 2026-05-06 22:42 | 53.42102 | -6.26453 | 208 ft | 37 kts | 96° |
| 2026-05-06 22:42 | 53.42160 | -6.26143 | 207 ft | 25 kts | 46° |
| 2026-05-06 22:42 | 53.42268 | -6.25957 | 207 ft | 20 kts | 44° |
| 2026-05-06 22:42 | 53.42366 | -6.25791 | 215 ft | 21 kts | 44° |
| 2026-05-06 22:43 | 53.42470 | -6.25613 | 212 ft | 22 kts | 44° |
| 2026-05-06 22:43 | 53.42581 | -6.25422 | 206 ft | 24 kts | 46° |
| 2026-05-06 22:43 | 53.42696 | -6.25228 | 209 ft | 24 kts | 46° |
| 2026-05-06 22:43 | 53.42804 | -6.25052 | 211 ft | 19 kts | 31° |
| 2026-05-06 22:44 | 53.42884 | -6.24928 | 213 ft | 11 kts | 49° |
| 2026-05-06 22:44 | 53.42922 | -6.24885 | 210 ft | 6 kts | 357° |
| 2026-05-06 22:44 | 53.42947 | -6.24918 | 213 ft | 4 kts | 281° |
| 2026-05-06 22:44 | 53.42946 | -6.24967 | 207 ft | 3 kts | 229° |
| 2026-05-06 22:45 | 53.42931 | -6.24968 | 212 ft | 4 kts | 177° |
| 2026-05-06 22:45 | 53.42911 | -6.24972 | 207 ft | 2 kts | 185° |
| 2026-05-06 22:45 | 53.42910 | -6.24972 | 207 ft | 0 kts | 185° |